sensor_id;sensor_type;location;lat;lon;timestamp;temperature;humidity
55004;DHT22;40900;52.710;6.438;2022-08-21T00:01:27;17.80;99.90
55004;DHT22;40900;52.710;6.438;2022-08-21T00:03:55;17.90;99.90
55004;DHT22;40900;52.710;6.438;2022-08-21T00:06:21;17.80;99.90
55004;DHT22;40900;52.710;6.438;2022-08-21T00:08:49;17.80;99.90
55004;DHT22;40900;52.710;6.438;2022-08-21T00:11:15;17.90;99.90
55004;DHT22;40900;52.710;6.438;2022-08-21T00:13:41;17.90;99.90
55004;DHT22;40900;52.710;6.438;2022-08-21T00:16:07;17.90;99.90
55004;DHT22;40900;52.710;6.438;2022-08-21T00:18:33;17.80;99.90
55004;DHT22;40900;52.710;6.438;2022-08-21T00:20:59;17.80;99.90
55004;DHT22;40900;52.710;6.438;2022-08-21T00:23:25;17.80;99.90
55004;DHT22;40900;52.710;6.438;2022-08-21T00:25:50;17.80;99.90
55004;DHT22;40900;52.710;6.438;2022-08-21T00:28:17;17.80;99.90
55004;DHT22;40900;52.710;6.438;2022-08-21T00:30:44;17.80;99.90
55004;DHT22;40900;52.710;6.438;2022-08-21T00:33:11;17.80;99.90
55004;DHT22;40900;52.710;6.438;2022-08-21T00:35:39;17.70;99.90
55004;DHT22;40900;52.710;6.438;2022-08-21T00:38:07;17.80;99.90
55004;DHT22;40900;52.710;6.438;2022-08-21T00:40:46;17.80;99.90
55004;DHT22;40900;52.710;6.438;2022-08-21T00:43:14;17.80;99.90
55004;DHT22;40900;52.710;6.438;2022-08-21T00:45:40;17.70;99.90
55004;DHT22;40900;52.710;6.438;2022-08-21T00:48:06;17.70;99.90
55004;DHT22;40900;52.710;6.438;2022-08-21T00:50:36;17.60;99.90
55004;DHT22;40900;52.710;6.438;2022-08-21T00:53:05;17.50;99.90
55004;DHT22;40900;52.710;6.438;2022-08-21T00:55:32;17.50;99.90
55004;DHT22;40900;52.710;6.438;2022-08-21T00:58:00;17.50;99.90
55004;DHT22;40900;52.710;6.438;2022-08-21T01:00:33;17.50;99.90
55004;DHT22;40900;52.710;6.438;2022-08-21T01:03:01;17.50;99.90
55004;DHT22;40900;52.710;6.438;2022-08-21T01:05:27;17.40;99.90
55004;DHT22;40900;52.710;6.438;2022-08-21T01:07:54;17.40;99.90
55004;DHT22;40900;52.710;6.438;2022-08-21T01:10:22;17.40;99.90
55004;DHT22;40900;52.710;6.438;2022-08-21T01:12:49;17.30;99.90
55004;DHT22;40900;52.710;6.438;2022-08-21T01:15:17;17.30;99.90
55004;DHT22;40900;52.710;6.438;2022-08-21T01:17:43;17.40;99.90
55004;DHT22;40900;52.710;6.438;2022-08-21T01:20:10;17.30;99.90
55004;DHT22;40900;52.710;6.438;2022-08-21T01:22:36;17.30;99.90
55004;DHT22;40900;52.710;6.438;2022-08-21T01:25:05;17.20;99.90
55004;DHT22;40900;52.710;6.438;2022-08-21T01:27:31;17.10;99.90
55004;DHT22;40900;52.710;6.438;2022-08-21T01:30:02;17.10;99.90
55004;DHT22;40900;52.710;6.438;2022-08-21T01:32:33;17.00;99.90
55004;DHT22;40900;52.710;6.438;2022-08-21T01:34:59;17.00;99.90
55004;DHT22;40900;52.710;6.438;2022-08-21T01:37:25;16.90;99.90
55004;DHT22;40900;52.710;6.438;2022-08-21T01:39:50;16.90;99.90
55004;DHT22;40900;52.710;6.438;2022-08-21T01:42:16;16.80;99.90
55004;DHT22;40900;52.710;6.438;2022-08-21T01:44:42;16.80;99.90
55004;DHT22;40900;52.710;6.438;2022-08-21T01:47:10;16.90;99.90
55004;DHT22;40900;52.710;6.438;2022-08-21T01:49:37;16.90;99.90
55004;DHT22;40900;52.710;6.438;2022-08-21T01:52:04;16.80;99.90
55004;DHT22;40900;52.710;6.438;2022-08-21T01:54:30;16.80;99.90
55004;DHT22;40900;52.710;6.438;2022-08-21T01:56:56;16.90;99.90
55004;DHT22;40900;52.710;6.438;2022-08-21T01:59:23;16.90;99.90
55004;DHT22;40900;52.710;6.438;2022-08-21T02:01:50;16.90;99.90
55004;DHT22;40900;52.710;6.438;2022-08-21T02:04:16;16.80;99.90
55004;DHT22;40900;52.710;6.438;2022-08-21T02:06:42;16.80;99.90
55004;DHT22;40900;52.710;6.438;2022-08-21T02:09:10;16.80;99.90
55004;DHT22;40900;52.710;6.438;2022-08-21T02:11:36;16.80;99.90
55004;DHT22;40900;52.710;6.438;2022-08-21T02:14:07;16.70;99.90
55004;DHT22;40900;52.710;6.438;2022-08-21T02:16:33;16.80;99.90
55004;DHT22;40900;52.710;6.438;2022-08-21T02:18:59;16.80;99.90
55004;DHT22;40900;52.710;6.438;2022-08-21T02:21:24;16.80;99.90
55004;DHT22;40900;52.710;6.438;2022-08-21T02:23:51;16.90;99.90
55004;DHT22;40900;52.710;6.438;2022-08-21T02:26:16;16.90;99.90
55004;DHT22;40900;52.710;6.438;2022-08-21T02:28:42;16.90;99.90
55004;DHT22;40900;52.710;6.438;2022-08-21T02:31:08;16.90;99.90
55004;DHT22;40900;52.710;6.438;2022-08-21T02:33:34;16.90;99.90
55004;DHT22;40900;52.710;6.438;2022-08-21T02:36:00;16.90;99.90
55004;DHT22;40900;52.710;6.438;2022-08-21T02:38:29;16.90;99.90
55004;DHT22;40900;52.710;6.438;2022-08-21T02:40:55;16.90;99.90
55004;DHT22;40900;52.710;6.438;2022-08-21T02:43:23;16.80;99.90
55004;DHT22;40900;52.710;6.438;2022-08-21T02:45:49;16.80;99.90
55004;DHT22;40900;52.710;6.438;2022-08-21T02:48:18;16.70;99.90
55004;DHT22;40900;52.710;6.438;2022-08-21T02:50:52;16.70;99.90
55004;DHT22;40900;52.710;6.438;2022-08-21T02:53:18;16.70;99.90
55004;DHT22;40900;52.710;6.438;2022-08-21T02:55:46;16.70;99.90
55004;DHT22;40900;52.710;6.438;2022-08-21T02:58:13;16.70;99.90
55004;DHT22;40900;52.710;6.438;2022-08-21T03:00:39;16.60;99.90
55004;DHT22;40900;52.710;6.438;2022-08-21T03:03:05;16.60;99.90
55004;DHT22;40900;52.710;6.438;2022-08-21T03:05:32;16.60;99.90
55004;DHT22;40900;52.710;6.438;2022-08-21T03:08:00;16.50;99.90
55004;DHT22;40900;52.710;6.438;2022-08-21T03:10:27;16.50;99.90
55004;DHT22;40900;52.710;6.438;2022-08-21T03:12:53;16.50;99.90
55004;DHT22;40900;52.710;6.438;2022-08-21T03:15:21;16.50;99.90
55004;DHT22;40900;52.710;6.438;2022-08-21T03:17:49;16.50;99.90
55004;DHT22;40900;52.710;6.438;2022-08-21T03:20:18;16.40;99.90
55004;DHT22;40900;52.710;6.438;2022-08-21T03:22:44;16.40;99.90
55004;DHT22;40900;52.710;6.438;2022-08-21T03:25:10;16.40;99.90
55004;DHT22;40900;52.710;6.438;2022-08-21T03:27:37;16.30;99.90
55004;DHT22;40900;52.710;6.438;2022-08-21T03:30:05;16.30;99.90
55004;DHT22;40900;52.710;6.438;2022-08-21T03:32:31;16.30;99.90
55004;DHT22;40900;52.710;6.438;2022-08-21T03:34:57;16.30;99.90
55004;DHT22;40900;52.710;6.438;2022-08-21T03:37:23;16.20;99.90
55004;DHT22;40900;52.710;6.438;2022-08-21T03:39:52;16.10;99.90
55004;DHT22;40900;52.710;6.438;2022-08-21T03:42:18;16.10;99.90
55004;DHT22;40900;52.710;6.438;2022-08-21T03:44:43;16.00;99.90
55004;DHT22;40900;52.710;6.438;2022-08-21T03:47:09;16.00;99.90
55004;DHT22;40900;52.710;6.438;2022-08-21T03:49:35;16.00;99.90
55004;DHT22;40900;52.710;6.438;2022-08-21T03:52:01;16.00;99.90
55004;DHT22;40900;52.710;6.438;2022-08-21T03:54:27;15.90;99.90
55004;DHT22;40900;52.710;6.438;2022-08-21T03:56:53;15.90;99.90
55004;DHT22;40900;52.710;6.438;2022-08-21T03:59:18;15.90;99.90
55004;DHT22;40900;52.710;6.438;2022-08-21T04:01:58;15.90;99.90
55004;DHT22;40900;52.710;6.438;2022-08-21T04:04:25;15.80;99.90
55004;DHT22;40900;52.710;6.438;2022-08-21T04:06:51;15.90;99.90
55004;DHT22;40900;52.710;6.438;2022-08-21T04:09:18;15.90;99.90
55004;DHT22;40900;52.710;6.438;2022-08-21T04:11:44;15.90;99.90
55004;DHT22;40900;52.710;6.438;2022-08-21T04:14:11;15.90;99.90
55004;DHT22;40900;52.710;6.438;2022-08-21T04:16:37;15.80;99.90
55004;DHT22;40900;52.710;6.438;2022-08-21T04:19:03;15.80;99.90
55004;DHT22;40900;52.710;6.438;2022-08-21T04:21:30;15.90;99.90
55004;DHT22;40900;52.710;6.438;2022-08-21T04:23:56;15.90;99.90
55004;DHT22;40900;52.710;6.438;2022-08-21T04:26:22;15.80;99.90
55004;DHT22;40900;52.710;6.438;2022-08-21T04:28:48;15.70;99.90
55004;DHT22;40900;52.710;6.438;2022-08-21T04:31:14;15.80;99.90
55004;DHT22;40900;52.710;6.438;2022-08-21T04:33:40;15.80;99.90
55004;DHT22;40900;52.710;6.438;2022-08-21T04:36:06;15.90;99.90
55004;DHT22;40900;52.710;6.438;2022-08-21T04:38:32;15.80;99.90
55004;DHT22;40900;52.710;6.438;2022-08-21T04:40:58;15.90;99.90
55004;DHT22;40900;52.710;6.438;2022-08-21T04:43:24;15.80;99.90
55004;DHT22;40900;52.710;6.438;2022-08-21T04:45:51;15.90;99.90
55004;DHT22;40900;52.710;6.438;2022-08-21T04:48:19;15.90;99.90
55004;DHT22;40900;52.710;6.438;2022-08-21T04:53:52;15.80;99.90
55004;DHT22;40900;52.710;6.438;2022-08-21T04:56:22;15.80;99.90
55004;DHT22;40900;52.710;6.438;2022-08-21T04:58:51;15.80;99.90
55004;DHT22;40900;52.710;6.438;2022-08-21T05:01:21;15.80;99.90
55004;DHT22;40900;52.710;6.438;2022-08-21T05:03:49;15.80;99.90
55004;DHT22;40900;52.710;6.438;2022-08-21T05:06:16;15.80;99.90
55004;DHT22;40900;52.710;6.438;2022-08-21T05:08:44;15.80;99.90
55004;DHT22;40900;52.710;6.438;2022-08-21T05:11:11;15.80;99.90
55004;DHT22;40900;52.710;6.438;2022-08-21T05:13:37;15.70;99.90
55004;DHT22;40900;52.710;6.438;2022-08-21T05:16:03;15.80;99.90
55004;DHT22;40900;52.710;6.438;2022-08-21T05:18:28;15.60;99.90
55004;DHT22;40900;52.710;6.438;2022-08-21T05:20:54;15.70;99.90
55004;DHT22;40900;52.710;6.438;2022-08-21T05:23:20;15.70;99.90
55004;DHT22;40900;52.710;6.438;2022-08-21T05:25:46;15.80;99.90
55004;DHT22;40900;52.710;6.438;2022-08-21T05:28:12;15.70;99.90
55004;DHT22;40900;52.710;6.438;2022-08-21T05:30:38;15.70;99.90
55004;DHT22;40900;52.710;6.438;2022-08-21T05:33:05;15.70;99.90
55004;DHT22;40900;52.710;6.438;2022-08-21T05:35:32;15.70;99.90
55004;DHT22;40900;52.710;6.438;2022-08-21T05:37:58;15.70;99.90
55004;DHT22;40900;52.710;6.438;2022-08-21T05:40:25;15.70;99.90
55004;DHT22;40900;52.710;6.438;2022-08-21T05:42:52;15.80;99.90
55004;DHT22;40900;52.710;6.438;2022-08-21T05:45:18;15.80;99.90
55004;DHT22;40900;52.710;6.438;2022-08-21T05:47:44;15.80;99.90
55004;DHT22;40900;52.710;6.438;2022-08-21T05:50:10;15.80;99.90
55004;DHT22;40900;52.710;6.438;2022-08-21T05:52:36;15.90;99.90
